Terminal Aerodrome Forecast
Issued by NWS North Platte, NE

Home | Current Version | Previous Version | Text Only | Print | Product List | Glossary On
Versions: 1 2 3 4 5 6 7 8 9 10 11
598
FTUS43 KLBF 262336
TAFLBF
TAF
KLBF 262336Z 2700/2724 14014KT P6SM FEW070 BKN200
     FM270300 15010KT P6SM VCTS BKN070CB BKN120
     FM270600 15007KT P6SM SCT070 BKN200
     FM270900 VRB06KT P6SM BKN200
     FM271500 06009KT P6SM SCT200=

USA.gov is the U.S. government's official web portal to all federal, state and local government web resources and services.